Time;durP1;ratioP1;P1;durP2;ratioP2;P2;SDS_P1;SDS_P2;PMS_P1;PMS_P2;Temp;Humidity;BMP_temperature;BMP_pressure;BME280_temperature;BME280_humidity;BME280_pressure;Samples;Min_cycle;Max_cycle;Signal;HPM_P1;HPM_P2
2021/12/17 00:01:34;;;;;;;19.73;12.10;;;;;;;;;;5073886;28;20492;-69
2021/12/17 00:04:04;;;;;;;17.93;10.50;;;;;;;;;;5073800;28;20399;-71
2021/12/17 00:06:47;;;;;;;18.03;11.60;;;;;;;;;;5073942;28;20923;-72
2021/12/17 00:09:13;;;;;;;16.67;11.57;;;;;;;;;;5073778;28;20418;-70
2021/12/17 00:11:39;;;;;;;17.10;12.00;;;;;;;;;;5073668;28;20462;-68
2021/12/17 00:14:05;;;;;;;21.00;12.70;;;;;;;;;;5073607;28;20397;-68
2021/12/17 00:16:37;;;;;;;24.40;13.23;;;;;;;;;;5072486;28;20777;-68
2021/12/17 00:19:19;;;;;;;19.13;12.30;;;;;;;;;;5073683;28;20972;-68
2021/12/17 00:48:55;;;;;;;17.10;9.97;;;;;;;;;;5073222;28;20791;-67
2021/12/17 00:54:00;;;;;;;19.93;11.70;;;;;;;;;;5073125;28;20389;-66
2021/12/17 00:56:26;;;;;;;14.53;10.23;;;;;;;;;;5072936;28;20829;-66
2021/12/17 00:58:53;;;;;;;16.53;11.33;;;;;;;;;;5072692;28;20404;-66
2021/12/17 01:01:19;;;;;;;19.37;11.70;;;;;;;;;;5071789;28;21033;-66
2021/12/17 01:03:45;;;;;;;17.00;11.23;;;;;;;;;;5072876;28;20401;-67
2021/12/17 01:06:11;;;;;;;18.20;11.97;;;;;;;;;;5072944;28;20449;-67
2021/12/17 01:08:37;;;;;;;21.57;12.00;;;;;;;;;;5072938;28;20408;-67
2021/12/17 01:11:04;;;;;;;18.53;12.97;;;;;;;;;;5072930;28;20424;-70
2021/12/17 01:13:30;;;;;;;18.87;11.67;;;;;;;;;;5072913;28;20408;-67
2021/12/17 01:15:57;;;;;;;20.93;11.90;;;;;;;;;;5071916;28;20417;-67
2021/12/17 01:18:34;;;;;;;17.87;10.90;;;;;;;;;;5073476;28;20440;-69
2021/12/17 01:21:30;;;;;;;18.00;11.60;;;;;;;;;;5073167;28;20458;-69
2021/12/17 01:24:07;;;;;;;18.00;11.90;;;;;;;;;;5072852;28;20480;-66
2021/12/17 01:42:57;;;;;;;17.33;10.43;;;;;;;;;;5072563;28;20969;-72
2021/12/17 01:45:28;;;;;;;15.90;11.30;;;;;;;;;;5072593;28;20401;-72
2021/12/17 01:47:54;;;;;;;20.60;12.50;;;;;;;;;;5072727;28;20730;-72
2021/12/17 01:56:03;;;;;;;19.60;11.80;;;;;;;;;;5072524;28;20429;-71
2021/12/17 02:01:14;;;;;;;21.00;13.10;;;;;;;;;;5072726;28;20568;-71
2021/12/17 02:03:40;;;;;;;18.50;11.10;;;;;;;;;;5072274;28;20466;-72
2021/12/17 02:06:06;;;;;;;19.43;11.57;;;;;;;;;;5072587;28;20802;-70
2021/12/17 02:08:34;;;;;;;16.93;11.60;;;;;;;;;;5072455;28;20406;-71
2021/12/17 02:19:42;;;;;;;19.90;12.00;;;;;;;;;;5076339;28;20458;-66
2021/12/17 02:33:07;;;;;;;17.23;12.77;;;;;;;;;;5075878;28;20404;-74
2021/12/17 02:35:39;;;;;;;18.50;12.40;;;;;;;;;;5075674;28;20393;-72
2021/12/17 02:38:07;;;;;;;22.40;14.40;;;;;;;;;;5075756;28;20890;-73
2021/12/17 02:46:02;;;;;;;18.70;12.60;;;;;;;;;;5075587;28;20460;-74
2021/12/17 02:48:29;;;;;;;16.87;12.20;;;;;;;;;;5075457;28;20402;-73
2021/12/17 02:50:57;;;;;;;20.70;13.40;;;;;;;;;;5075512;28;20964;-72
2021/12/17 02:53:24;;;;;;;18.60;12.70;;;;;;;;;;5075209;28;20452;-72
2021/12/17 02:55:53;;;;;;;19.13;12.33;;;;;;;;;;5075134;28;20410;-72
2021/12/17 02:58:21;;;;;;;20.13;13.07;;;;;;;;;;5075213;28;20503;-70
2021/12/17 03:00:47;;;;;;;18.70;11.90;;;;;;;;;;5075042;28;20470;-70
2021/12/17 03:03:13;;;;;;;18.80;12.33;;;;;;;;;;5074927;28;20451;-73
2021/12/17 03:05:41;;;;;;;16.10;11.00;;;;;;;;;;5073788;28;20413;-69
2021/12/17 03:08:11;;;;;;;17.90;12.50;;;;;;;;;;5075211;28;20473;-73
2021/12/17 03:10:38;;;;;;;16.20;12.30;;;;;;;;;;5074960;28;20441;-71
2021/12/17 03:13:04;;;;;;;18.20;12.07;;;;;;;;;;5074861;28;20496;-72
2021/12/17 03:15:40;;;;;;;20.20;13.33;;;;;;;;;;5074802;28;20423;-66
2021/12/17 03:18:40;;;;;;;19.93;12.50;;;;;;;;;;5074852;28;20395;-66
2021/12/17 03:23:41;;;;;;;19.10;11.37;;;;;;;;;;5074644;28;20396;-67
2021/12/17 03:26:14;;;;;;;18.43;12.83;;;;;;;;;;5074585;28;20758;-67
2021/12/17 03:28:41;;;;;;;18.00;12.67;;;;;;;;;;5074628;28;20454;-67
2021/12/17 03:31:08;;;;;;;22.13;11.17;;;;;;;;;;5074522;28;20420;-67
2021/12/17 03:33:34;;;;;;;19.60;12.43;;;;;;;;;;5074522;28;20405;-67
2021/12/17 03:36:01;;;;;;;19.43;12.47;;;;;;;;;;5074419;28;20500;-67
2021/12/17 03:38:28;;;;;;;21.10;12.00;;;;;;;;;;5073245;28;20401;-67
2021/12/17 03:41:10;;;;;;;18.10;13.00;;;;;;;;;;5074348;28;20453;-67
2021/12/17 03:43:36;;;;;;;21.57;12.63;;;;;;;;;;5074208;28;20410;-67
2021/12/17 03:46:02;;;;;;;18.17;12.70;;;;;;;;;;5074273;28;20980;-73
2021/12/17 03:48:30;;;;;;;18.37;13.07;;;;;;;;;;5074222;28;20415;-71
2021/12/17 03:50:56;;;;;;;22.43;13.47;;;;;;;;;;5072907;28;20863;-73
2021/12/17 03:53:22;;;;;;;19.67;13.27;;;;;;;;;;5074005;28;20446;-72
2021/12/17 03:55:49;;;;;;;19.50;13.60;;;;;;;;;;5073908;28;20409;-72
2021/12/17 03:58:17;;;;;;;18.53;12.90;;;;;;;;;;5072780;28;20448;-71
2021/12/17 04:00:43;;;;;;;18.90;13.37;;;;;;;;;;5073635;28;20453;-72
2021/12/17 04:03:09;;;;;;;20.57;14.00;;;;;;;;;;5073854;28;20440;-69
2021/12/17 04:05:35;;;;;;;22.93;15.37;;;;;;;;;;5073917;28;20417;-70
2021/12/17 04:08:01;;;;;;;24.40;14.47;;;;;;;;;;5073893;28;20912;-73
2021/12/17 04:10:29;;;;;;;23.40;13.87;;;;;;;;;;5072728;28;20429;-73
2021/12/17 04:15:31;;;;;;;18.00;12.40;;;;;;;;;;5073789;28;20493;-72
2021/12/17 04:18:00;;;;;;;21.73;13.63;;;;;;;;;;5073787;28;20426;-72
2021/12/17 04:20:26;;;;;;;20.53;13.23;;;;;;;;;;5073774;28;20492;-73
2021/12/17 04:22:52;;;;;;;21.47;12.97;;;;;;;;;;5073597;28;20468;-73
2021/12/17 04:25:18;;;;;;;24.90;14.13;;;;;;;;;;5073663;28;20421;-71
2021/12/17 04:27:44;;;;;;;24.50;14.30;;;;;;;;;;5073828;28;20449;-71
2021/12/17 04:30:11;;;;;;;23.10;14.70;;;;;;;;;;5072555;28;20471;-74
2021/12/17 04:32:37;;;;;;;23.27;14.60;;;;;;;;;;5073829;28;20495;-72
2021/12/17 04:35:03;;;;;;;20.07;14.00;;;;;;;;;;5073294;28;20445;-73
2021/12/17 04:37:29;;;;;;;27.83;14.80;;;;;;;;;;5073690;28;20404;-73
2021/12/17 04:39:55;;;;;;;27.17;15.10;;;;;;;;;;5073801;28;20777;-71
2021/12/17 04:42:39;;;;;;;23.47;15.33;;;;;;;;;;5073707;28;20466;-72
2021/12/17 04:45:05;;;;;;;24.30;14.67;;;;;;;;;;5073936;28;20400;-72
2021/12/17 04:58:29;;;;;;;22.43;14.07;;;;;;;;;;5073200;28;20463;-71
2021/12/17 05:00:57;;;;;;;20.47;13.73;;;;;;;;;;5071814;28;20986;-71
2021/12/17 05:03:23;;;;;;;20.40;14.23;;;;;;;;;;5071769;28;20409;-72
2021/12/17 05:05:49;;;;;;;22.27;14.00;;;;;;;;;;5071790;28;20870;-74
2021/12/17 05:08:19;;;;;;;19.93;13.60;;;;;;;;;;5073151;28;20409;-72
2021/12/17 05:11:12;;;;;;;21.30;14.30;;;;;;;;;;5072998;28;20784;-73
2021/12/17 05:19:26;;;;;;;22.27;14.47;;;;;;;;;;5073031;28;20458;-72
2021/12/17 05:21:52;;;;;;;20.10;12.87;;;;;;;;;;5072795;28;20853;-73
2021/12/17 05:24:18;;;;;;;20.40;13.63;;;;;;;;;;5072809;28;20839;-73
2021/12/17 05:26:44;;;;;;;21.03;13.60;;;;;;;;;;5072896;28;20471;-72
2021/12/17 05:29:10;;;;;;;21.50;13.87;;;;;;;;;;5072793;28;20960;-72
2021/12/17 05:31:36;;;;;;;21.13;14.63;;;;;;;;;;5072667;28;20831;-70
2021/12/17 05:34:02;;;;;;;18.10;13.27;;;;;;;;;;5072746;28;20393;-71
2021/12/17 05:36:29;;;;;;;20.23;13.37;;;;;;;;;;5072679;28;20408;-70
2021/12/17 05:38:54;;;;;;;22.30;13.33;;;;;;;;;;5072603;28;20432;-69
2021/12/17 05:41:21;;;;;;;21.70;13.50;;;;;;;;;;5072511;28;20456;-70
2021/12/17 05:43:54;;;;;;;22.07;13.27;;;;;;;;;;5072732;28;20505;-71
2021/12/17 05:46:35;;;;;;;19.37;12.90;;;;;;;;;;5074599;28;20863;-69
2021/12/17 05:49:01;;;;;;;18.33;12.20;;;;;;;;;;5076747;28;20511;-71
2021/12/17 05:51:27;;;;;;;21.20;12.43;;;;;;;;;;5076421;28;20499;-72
2021/12/17 05:53:53;;;;;;;17.70;11.47;;;;;;;;;;5075004;28;20903;-71
2021/12/17 05:56:20;;;;;;;16.13;11.50;;;;;;;;;;5076117;28;20452;-69
2021/12/17 05:58:46;;;;;;;21.07;12.23;;;;;;;;;;5076537;28;20876;-71
2021/12/17 06:01:12;;;;;;;13.43;10.10;;;;;;;;;;5076219;28;20479;-68
2021/12/17 06:03:39;;;;;;;13.33;9.50;;;;;;;;;;5076144;28;20964;-70
2021/12/17 06:06:05;;;;;;;10.27;8.13;;;;;;;;;;5076323;28;20499;-70
2021/12/17 06:08:31;;;;;;;11.43;7.90;;;;;;;;;;5076338;28;20421;-70
2021/12/17 06:10:57;;;;;;;14.03;9.00;;;;;;;;;;5076272;28;20454;-68
2021/12/17 06:13:23;;;;;;;12.07;8.80;;;;;;;;;;5076323;28;20497;-69
2021/12/17 06:15:49;;;;;;;11.27;8.67;;;;;;;;;;5076582;28;20817;-68
2021/12/17 06:18:15;;;;;;;13.80;9.03;;;;;;;;;;5076681;28;20427;-67
2021/12/17 06:20:42;;;;;;;13.77;9.43;;;;;;;;;;5076222;28;20405;-68
2021/12/17 06:23:08;;;;;;;14.90;9.43;;;;;;;;;;5076384;28;20760;-70
2021/12/17 06:25:33;;;;;;;12.90;9.80;;;;;;;;;;5076587;28;20485;-68
2021/12/17 06:28:00;;;;;;;14.83;10.30;;;;;;;;;;5076427;28;20431;-74
2021/12/17 06:30:26;;;;;;;13.33;8.73;;;;;;;;;;5076151;28;20413;-74
2021/12/17 06:32:52;;;;;;;12.87;9.13;;;;;;;;;;5075760;28;20778;-73
2021/12/17 06:35:18;;;;;;;13.80;9.70;;;;;;;;;;5075669;28;20737;-74
2021/12/17 06:37:45;;;;;;;15.10;9.63;;;;;;;;;;5074410;28;20840;-71
2021/12/17 06:40:11;;;;;;;12.20;9.20;;;;;;;;;;5075403;28;21049;-74
2021/12/17 06:42:37;;;;;;;11.70;9.97;;;;;;;;;;5075252;28;20508;-73
2021/12/17 06:45:09;;;;;;;14.73;9.60;;;;;;;;;;5075364;28;20417;-70
2021/12/17 06:47:36;;;;;;;14.40;10.00;;;;;;;;;;5075553;28;20895;-72
2021/12/17 07:00:45;;;;;;;19.97;12.10;;;;;;;;;;5075210;28;20484;-74
2021/12/17 07:10:44;;;;;;;15.30;11.10;;;;;;;;;;5074784;28;20539;-72
2021/12/17 07:20:33;;;;;;;15.00;10.07;;;;;;;;;;5075051;28;20420;-73
2021/12/17 07:39:43;;;;;;;14.57;10.10;;;;;;;;;;5074305;28;20795;-72
2021/12/17 07:42:09;;;;;;;13.30;9.20;;;;;;;;;;5074151;28;20508;-74
2021/12/17 07:44:36;;;;;;;15.97;9.43;;;;;;;;;;5074435;28;20405;-72
2021/12/17 07:47:02;;;;;;;12.83;8.73;;;;;;;;;;5074348;28;20394;-74
2021/12/17 07:49:28;;;;;;;13.73;8.67;;;;;;;;;;5074300;28;20435;-70
2021/12/17 07:51:54;;;;;;;11.97;8.33;;;;;;;;;;5074362;28;20410;-71
2021/12/17 07:54:20;;;;;;;13.13;8.13;;;;;;;;;;5074476;28;20398;-71
2021/12/17 07:56:46;;;;;;;13.33;8.13;;;;;;;;;;5072973;28;20994;-73
2021/12/17 07:59:13;;;;;;;10.67;8.00;;;;;;;;;;5074441;28;20417;-74
2021/12/17 08:01:40;;;;;;;11.97;8.33;;;;;;;;;;5074324;28;20806;-73
2021/12/17 08:04:07;;;;;;;15.47;8.40;;;;;;;;;;5074561;28;20762;-72
2021/12/17 08:06:34;;;;;;;17.80;8.50;;;;;;;;;;5074127;28;20439;-72
2021/12/17 08:09:01;;;;;;;12.20;7.70;;;;;;;;;;5073685;28;20424;-72
2021/12/17 08:11:27;;;;;;;11.87;7.83;;;;;;;;;;5074616;28;20410;-73
2021/12/17 08:13:56;;;;;;;16.40;8.50;;;;;;;;;;5073849;28;20415;-76
2021/12/17 08:23:06;;;;;;;8.93;6.50;;;;;;;;;;5073756;28;20979;-73
2021/12/17 08:24:46;;;;;;;10.33;6.70;;;;;;;;;;5073676;28;20436;-72
2021/12/17 08:27:25;;;;;;;10.00;6.93;;;;;;;;;;5073493;28;20460;-72
2021/12/17 08:32:36;;;;;;;11.07;7.20;;;;;;;;;;5073506;28;20455;-72
2021/12/17 08:35:02;;;;;;;9.80;7.47;;;;;;;;;;5073276;28;20958;-72
2021/12/17 08:37:29;;;;;;;10.83;7.60;;;;;;;;;;5073454;28;20893;-70
2021/12/17 08:39:55;;;;;;;10.00;7.20;;;;;;;;;;5073244;28;20425;-70
2021/12/17 08:42:21;;;;;;;10.70;6.73;;;;;;;;;;5073041;28;20461;-71
2021/12/17 08:44:47;;;;;;;8.70;5.80;;;;;;;;;;5073105;28;20435;-70
2021/12/17 08:47:13;;;;;;;9.63;6.33;;;;;;;;;;5073156;28;20424;-68
2021/12/17 08:49:40;;;;;;;8.40;6.00;;;;;;;;;;5073359;28;20401;-73
2021/12/17 08:52:07;;;;;;;8.93;6.00;;;;;;;;;;5073266;28;20408;-75
2021/12/17 08:54:33;;;;;;;9.07;6.40;;;;;;;;;;5073045;28;20488;-71
2021/12/17 08:56:59;;;;;;;9.80;6.67;;;;;;;;;;5072948;28;20879;-71
2021/12/17 08:59:27;;;;;;;12.20;7.30;;;;;;;;;;5071854;28;20969;-71
2021/12/17 09:01:53;;;;;;;9.47;6.70;;;;;;;;;;5071634;28;20508;-71
2021/12/17 09:04:19;;;;;;;8.80;6.33;;;;;;;;;;5072898;28;20401;-73
2021/12/17 09:06:45;;;;;;;7.90;5.87;;;;;;;;;;5072941;28;20496;-73
2021/12/17 09:09:11;;;;;;;8.03;6.43;;;;;;;;;;5072936;28;20904;-72
2021/12/17 09:11:37;;;;;;;8.10;6.03;;;;;;;;;;5072899;28;20401;-72
2021/12/17 09:14:05;;;;;;;8.77;6.00;;;;;;;;;;5072758;28;20455;-71
2021/12/17 09:16:31;;;;;;;9.80;6.27;;;;;;;;;;5071676;28;20408;-72
2021/12/17 09:18:57;;;;;;;9.83;6.40;;;;;;;;;;5072974;28;20418;-72
2021/12/17 09:21:23;;;;;;;8.70;6.40;;;;;;;;;;5076634;28;20563;-72
2021/12/17 09:23:49;;;;;;;8.07;6.10;;;;;;;;;;5076861;28;20491;-73
2021/12/17 09:26:16;;;;;;;8.80;6.10;;;;;;;;;;5076885;28;20475;-72
2021/12/17 09:28:43;;;;;;;7.10;6.23;;;;;;;;;;5075666;28;20491;-72
2021/12/17 09:31:12;;;;;;;7.60;5.80;;;;;;;;;;5076894;28;20499;-72
2021/12/17 09:33:40;;;;;;;9.57;5.93;;;;;;;;;;5076827;28;20412;-70
2021/12/17 09:36:06;;;;;;;8.23;6.00;;;;;;;;;;5076767;28;20522;-72
2021/12/17 09:38:32;;;;;;;9.10;6.30;;;;;;;;;;5075752;28;20421;-70
2021/12/17 09:40:58;;;;;;;8.10;5.70;;;;;;;;;;5076702;28;20770;-71
2021/12/17 09:43:24;;;;;;;9.27;6.47;;;;;;;;;;5076649;28;20405;-71
2021/12/17 09:45:51;;;;;;;9.23;7.20;;;;;;;;;;5076646;28;20755;-71
2021/12/17 09:48:19;;;;;;;8.63;6.33;;;;;;;;;;5076494;28;20900;-69
2021/12/17 09:50:45;;;;;;;6.10;5.27;;;;;;;;;;5075142;28;20404;-69
2021/12/17 09:53:11;;;;;;;9.37;6.77;;;;;;;;;;5076794;28;20408;-69
2021/12/17 09:55:37;;;;;;;8.60;6.23;;;;;;;;;;5076389;28;20393;-71
2021/12/17 09:58:04;;;;;;;9.33;6.33;;;;;;;;;;5076083;28;20456;-72
2021/12/17 10:00:30;;;;;;;7.97;5.87;;;;;;;;;;5074950;28;20446;-71
2021/12/17 10:02:56;;;;;;;9.97;7.07;;;;;;;;;;5076127;28;20472;-71
2021/12/17 10:05:22;;;;;;;9.07;7.00;;;;;;;;;;5074950;28;20408;-70
2021/12/17 10:07:53;;;;;;;9.63;6.70;;;;;;;;;;5076080;28;20918;-72
2021/12/17 10:10:19;;;;;;;8.73;6.20;;;;;;;;;;5076064;28;20425;-71
2021/12/17 10:12:46;;;;;;;7.17;6.00;;;;;;;;;;5075892;28;20439;-73
2021/12/17 10:15:12;;;;;;;7.70;5.83;;;;;;;;;;5074718;28;20782;-73
2021/12/17 10:17:50;;;;;;;9.20;6.70;;;;;;;;;;5076062;28;20412;-73
2021/12/17 10:20:16;;;;;;;8.70;6.67;;;;;;;;;;5075987;28;20392;-71
2021/12/17 10:22:46;;;;;;;9.23;6.67;;;;;;;;;;5075591;28;20476;-72
2021/12/17 10:25:13;;;;;;;7.10;5.90;;;;;;;;;;5075839;28;20417;-73
2021/12/17 10:27:40;;;;;;;11.73;7.23;;;;;;;;;;5075717;28;20396;-71
2021/12/17 10:30:21;;;;;;;8.10;6.30;;;;;;;;;;5075663;28;20453;-71
2021/12/17 10:32:54;;;;;;;8.07;6.27;;;;;;;;;;5074775;28;20763;-71
2021/12/17 10:35:21;;;;;;;9.13;7.13;;;;;;;;;;5075766;28;20393;-71
2021/12/17 10:37:52;;;;;;;9.10;7.10;;;;;;;;;;5074254;28;20421;-67
2021/12/17 10:40:18;;;;;;;8.87;6.60;;;;;;;;;;5075548;28;20424;-71
2021/12/17 10:42:52;;;;;;;10.07;6.53;;;;;;;;;;5075409;28;20518;-72
2021/12/17 10:45:26;;;;;;;9.40;6.37;;;;;;;;;;5074297;28;20477;-69
2021/12/17 10:51:02;;;;;;;12.70;7.10;;;;;;;;;;5075410;28;20398;-73
2021/12/17 10:53:28;;;;;;;12.20;6.60;;;;;;;;;;5075249;28;20419;-70
2021/12/17 10:55:55;;;;;;;12.00;6.70;;;;;;;;;;5075099;28;20939;-71
2021/12/17 10:58:22;;;;;;;10.60;7.10;;;;;;;;;;5075244;28;20421;-69
2021/12/17 11:00:50;;;;;;;11.40;7.10;;;;;;;;;;5075142;28;20412;-74
2021/12/17 11:03:16;;;;;;;12.30;7.73;;;;;;;;;;5074987;28;20454;-73
2021/12/17 11:05:45;;;;;;;12.50;7.67;;;;;;;;;;5074963;28;20411;-69
2021/12/17 11:08:33;;;;;;;11.60;7.77;;;;;;;;;;5074959;28;20438;-72
2021/12/17 11:11:08;;;;;;;12.57;8.27;;;;;;;;;;5075084;28;20518;-72
2021/12/17 11:13:34;;;;;;;12.53;8.63;;;;;;;;;;5075221;28;20401;-77
2021/12/17 11:16:00;;;;;;;15.97;8.57;;;;;;;;;;5075152;28;20428;-74
2021/12/17 11:18:27;;;;;;;12.23;9.20;;;;;;;;;;5075111;28;20440;-71
2021/12/17 11:20:55;;;;;;;9.83;7.60;;;;;;;;;;5074782;28;20512;-72
2021/12/17 11:23:22;;;;;;;12.10;8.20;;;;;;;;;;5075027;28;20422;-73
2021/12/17 11:25:49;;;;;;;10.80;7.70;;;;;;;;;;5074984;28;20448;-71
2021/12/17 11:28:15;;;;;;;13.77;8.93;;;;;;;;;;5074859;28;20409;-70
2021/12/17 11:30:43;;;;;;;12.63;8.70;;;;;;;;;;5074799;28;20491;-72
2021/12/17 11:33:09;;;;;;;11.10;8.40;;;;;;;;;;5074448;28;20419;-71
2021/12/17 11:35:37;;;;;;;12.10;8.37;;;;;;;;;;5074651;28;20401;-72
2021/12/17 11:38:08;;;;;;;12.67;8.00;;;;;;;;;;5074496;28;20402;-71
2021/12/17 11:40:41;;;;;;;11.27;7.73;;;;;;;;;;5074224;28;20512;-73
2021/12/17 11:43:14;;;;;;;12.37;8.50;;;;;;;;;;5074188;28;20473;-72
2021/12/17 11:45:40;;;;;;;13.47;7.73;;;;;;;;;;5074368;28;20398;-74
2021/12/17 11:48:21;;;;;;;12.43;9.07;;;;;;;;;;5074220;28;20402;-71
2021/12/17 11:51:01;;;;;;;14.10;8.00;;;;;;;;;;5074306;28;20433;-75
2021/12/17 11:53:27;;;;;;;12.67;8.23;;;;;;;;;;5074110;28;20397;-73
2021/12/17 11:55:58;;;;;;;10.63;7.53;;;;;;;;;;5073835;28;20406;-74
2021/12/17 11:58:42;;;;;;;10.43;8.20;;;;;;;;;;5073997;28;20407;-73
2021/12/17 12:01:08;;;;;;;13.20;7.67;;;;;;;;;;5072428;28;20403;-73
2021/12/17 12:03:34;;;;;;;11.10;7.23;;;;;;;;;;5073754;28;20453;-72
2021/12/17 12:06:00;;;;;;;12.77;8.90;;;;;;;;;;5072494;28;20441;-76
2021/12/17 12:08:27;;;;;;;11.70;8.07;;;;;;;;;;5073743;28;20810;-76
2021/12/17 12:11:03;;;;;;;10.80;7.03;;;;;;;;;;5073666;28;20782;-71
2021/12/17 12:13:34;;;;;;;10.03;8.03;;;;;;;;;;5072410;28;20416;-69
2021/12/17 12:16:04;;;;;;;10.83;7.57;;;;;;;;;;5073559;28;20404;-70
2021/12/17 12:19:02;;;;;;;15.57;7.97;;;;;;;;;;5073595;28;20440;-74
2021/12/17 12:21:32;;;;;;;12.03;8.03;;;;;;;;;;5029013;28;20502;-73
2021/12/17 12:24:10;;;;;;;11.53;7.53;;;;;;;;;;5073398;28;20443;-75
2021/12/17 12:26:40;;;;;;;11.70;7.77;;;;;;;;;;5073496;28;20432;-66
2021/12/17 12:29:17;;;;;;;13.53;8.00;;;;;;;;;;5073400;28;20492;-69
2021/12/17 12:31:45;;;;;;;8.77;7.00;;;;;;;;;;5073246;28;20403;-71
2021/12/17 12:34:13;;;;;;;11.10;7.00;;;;;;;;;;5073237;28;20419;-70
2021/12/17 12:36:51;;;;;;;12.73;7.40;;;;;;;;;;5073240;28;20409;-71
2021/12/17 12:39:20;;;;;;;8.90;6.53;;;;;;;;;;5072013;28;20428;-74
2021/12/17 12:42:05;;;;;;;11.90;7.80;;;;;;;;;;5073108;28;20481;-71
2021/12/17 12:44:40;;;;;;;10.43;7.20;;;;;;;;;;5072066;28;20424;-68
2021/12/17 12:47:07;;;;;;;8.60;6.37;;;;;;;;;;5073309;28;20430;-70
2021/12/17 12:49:42;;;;;;;11.53;6.80;;;;;;;;;;5073284;28;20518;-68
2021/12/17 12:52:24;;;;;;;10.63;6.40;;;;;;;;;;5072211;28;20402;-69
2021/12/17 12:54:51;;;;;;;10.33;7.30;;;;;;;;;;5072897;28;20446;-71
2021/12/17 12:57:46;;;;;;;8.97;6.50;;;;;;;;;;5073079;28;20459;-68
2021/12/17 13:00:33;;;;;;;11.10;7.43;;;;;;;;;;5056409;28;20412;-71
2021/12/17 13:03:03;;;;;;;10.13;7.00;;;;;;;;;;5073190;28;20526;-72
2021/12/17 13:05:29;;;;;;;9.90;6.83;;;;;;;;;;5073075;28;20459;-67
2021/12/17 13:07:57;;;;;;;9.20;6.53;;;;;;;;;;5071768;28;20408;-72
2021/12/17 13:10:23;;;;;;;11.53;7.50;;;;;;;;;;5072915;28;20779;-69
2021/12/17 13:13:07;;;;;;;8.40;5.90;;;;;;;;;;5073022;28;20413;-73
2021/12/17 13:24:05;;;;;;;13.27;8.30;;;;;;;;;;5072941;28;20411;-73
2021/12/17 13:26:31;;;;;;;11.97;7.37;;;;;;;;;;5071685;28;20413;-73
2021/12/17 13:28:59;;;;;;;10.70;7.53;;;;;;;;;;5072862;28;20410;-74
2021/12/17 13:31:39;;;;;;;9.97;6.80;;;;;;;;;;5072728;28;20409;-72
2021/12/17 13:34:06;;;;;;;13.20;7.63;;;;;;;;;;5072670;28;20900;-72
2021/12/17 13:36:33;;;;;;;11.47;7.43;;;;;;;;;;5072632;28;20405;-72
2021/12/17 13:38:59;;;;;;;10.10;7.10;;;;;;;;;;5072616;28;20421;-72
2021/12/17 13:41:35;;;;;;;12.43;7.13;;;;;;;;;;5072541;28;20458;-70
2021/12/17 13:44:01;;;;;;;9.70;6.87;;;;;;;;;;5072638;28;20771;-71
2021/12/17 13:46:30;;;;;;;11.17;7.63;;;;;;;;;;5071380;28;20413;-69
2021/12/17 13:48:56;;;;;;;11.53;6.80;;;;;;;;;;5072727;28;20436;-73
2021/12/17 13:51:22;;;;;;;15.43;7.83;;;;;;;;;;5072676;28;20408;-72
2021/12/17 13:53:48;;;;;;;10.60;7.50;;;;;;;;;;5072396;28;20416;-70
2021/12/17 13:56:17;;;;;;;8.70;6.43;;;;;;;;;;5072163;28;21079;-72
2021/12/17 13:58:43;;;;;;;10.90;6.67;;;;;;;;;;5072424;28;20435;-71
2021/12/17 14:01:09;;;;;;;8.40;6.90;;;;;;;;;;5072388;28;20461;-66
2021/12/17 14:03:38;;;;;;;10.80;7.43;;;;;;;;;;5071219;28;20812;-68
2021/12/17 14:06:11;;;;;;;9.83;6.33;;;;;;;;;;5071318;28;20451;-68
2021/12/17 14:08:41;;;;;;;10.73;6.60;;;;;;;;;;5076178;28;20922;-69
2021/12/17 14:11:29;;;;;;;11.20;7.70;;;;;;;;;;5076080;28;20405;-69
2021/12/17 14:13:55;;;;;;;9.50;6.80;;;;;;;;;;5075997;28;20469;-71
2021/12/17 14:16:31;;;;;;;10.77;6.60;;;;;;;;;;5074835;28;20990;-67
2021/12/17 14:19:00;;;;;;;9.77;7.07;;;;;;;;;;5075926;28;20533;-68
2021/12/17 14:21:28;;;;;;;13.07;7.50;;;;;;;;;;5075730;28;20922;-68
2021/12/17 14:23:54;;;;;;;10.77;7.50;;;;;;;;;;5076028;28;20408;-68
2021/12/17 14:26:26;;;;;;;11.97;7.10;;;;;;;;;;5075883;28;20455;-71
2021/12/17 14:28:52;;;;;;;10.30;7.33;;;;;;;;;;5075805;28;20411;-70
2021/12/17 14:31:18;;;;;;;13.17;8.83;;;;;;;;;;5074423;28;20777;-68
2021/12/17 14:33:56;;;;;;;12.50;8.03;;;;;;;;;;5074350;28;20408;-68
2021/12/17 14:36:30;;;;;;;11.50;7.00;;;;;;;;;;5075722;28;20409;-73
2021/12/17 14:39:07;;;;;;;11.70;7.77;;;;;;;;;;5074297;28;20430;-70
2021/12/17 14:41:43;;;;;;;15.43;8.60;;;;;;;;;;5074427;28;20477;-70
2021/12/17 14:44:36;;;;;;;14.50;8.50;;;;;;;;;;5075823;28;20394;-73
2021/12/17 15:06:16;;;;;;;12.30;8.80;;;;;;;;;;5053047;28;20901;-74
2021/12/17 15:08:43;;;;;;;13.40;9.57;;;;;;;;;;5070278;28;20442;-69
2021/12/17 15:11:37;;;;;;;15.20;9.10;;;;;;;;;;5075068;28;20419;-74
2021/12/17 15:13:56;;;;;;;16.27;9.33;;;;;;;;;;5074561;28;20555;-68
2021/12/17 15:16:22;;;;;;;16.27;10.30;;;;;;;;;;5074967;28;20842;-72
2021/12/17 15:18:48;;;;;;;15.63;10.83;;;;;;;;;;5074515;28;20420;-70
2021/12/17 15:21:14;;;;;;;16.80;9.83;;;;;;;;;;5073416;28;20440;-68
2021/12/17 15:23:40;;;;;;;18.90;9.87;;;;;;;;;;5074708;28;20884;-73
2021/12/17 15:26:06;;;;;;;15.20;9.40;;;;;;;;;;5074819;28;20459;-71
2021/12/17 15:28:33;;;;;;;13.87;9.90;;;;;;;;;;5073568;28;20407;-69
2021/12/17 15:31:02;;;;;;;14.43;10.33;;;;;;;;;;5073474;28;20417;-72
2021/12/17 15:33:28;;;;;;;17.07;10.20;;;;;;;;;;5075540;28;20410;-74
2021/12/17 15:35:55;;;;;;;16.53;10.93;;;;;;;;;;5074328;28;20833;-69
2021/12/17 15:38:23;;;;;;;15.80;10.90;;;;;;;;;;5074287;28;20433;-68
2021/12/17 15:40:49;;;;;;;16.27;10.90;;;;;;;;;;5074431;28;20418;-68
2021/12/17 15:43:16;;;;;;;15.20;10.67;;;;;;;;;;5074266;28;20956;-68
2021/12/17 15:45:44;;;;;;;16.10;10.60;;;;;;;;;;5074374;28;20402;-72
2021/12/17 15:48:10;;;;;;;16.40;10.57;;;;;;;;;;5074423;28;20406;-70
2021/12/17 15:50:37;;;;;;;15.17;10.57;;;;;;;;;;5074278;28;20419;-74
2021/12/17 15:53:03;;;;;;;15.00;10.80;;;;;;;;;;5074205;28;20467;-73
2021/12/17 15:55:30;;;;;;;14.20;10.00;;;;;;;;;;5074130;28;20494;-68
2021/12/17 15:57:57;;;;;;;15.60;10.00;;;;;;;;;;5074021;28;20542;-68
2021/12/17 16:00:24;;;;;;;19.00;10.87;;;;;;;;;;5074024;28;20412;-70
2021/12/17 16:02:50;;;;;;;16.57;10.10;;;;;;;;;;5072598;28;20477;-71
2021/12/17 16:05:17;;;;;;;17.13;10.30;;;;;;;;;;5072620;28;20413;-66
2021/12/17 16:07:44;;;;;;;16.70;10.03;;;;;;;;;;5073682;28;20410;-67
2021/12/17 16:18:14;;;;;;;17.17;10.60;;;;;;;;;;5073671;28;20527;-70
2021/12/17 16:21:01;;;;;;;15.20;10.07;;;;;;;;;;5072228;28;20416;-73
2021/12/17 16:23:28;;;;;;;17.87;11.47;;;;;;;;;;5073471;28;20526;-72
2021/12/17 16:25:55;;;;;;;17.30;10.73;;;;;;;;;;5073525;28;20908;-71
2021/12/17 16:28:21;;;;;;;17.53;10.40;;;;;;;;;;5073490;28;20421;-70
2021/12/17 16:30:47;;;;;;;17.90;10.10;;;;;;;;;;5071309;28;20845;-72
2021/12/17 16:33:13;;;;;;;16.43;11.00;;;;;;;;;;5073311;28;20440;-71
2021/12/17 16:35:40;;;;;;;16.67;12.10;;;;;;;;;;5073384;28;20402;-67
2021/12/17 16:38:06;;;;;;;17.13;10.90;;;;;;;;;;5081967;28;20432;-68
2021/12/17 16:40:32;;;;;;;16.50;10.70;;;;;;;;;;5093336;28;20420;-67
2021/12/17 16:42:59;;;;;;;16.60;11.03;;;;;;;;;;5091902;28;20471;-67
2021/12/17 16:45:41;;;;;;;17.53;11.50;;;;;;;;;;5093426;28;20776;-69
2021/12/17 16:48:07;;;;;;;18.00;10.87;;;;;;;;;;5093265;28;20393;-68
2021/12/17 16:50:33;;;;;;;16.10;10.03;;;;;;;;;;5093348;28;20491;-67
2021/12/17 16:53:00;;;;;;;17.00;11.10;;;;;;;;;;5093184;28;20408;-67
2021/12/17 16:55:28;;;;;;;16.20;10.67;;;;;;;;;;5093160;28;20847;-67
2021/12/17 16:57:54;;;;;;;14.50;9.93;;;;;;;;;;5092985;28;20564;-68
2021/12/17 17:00:22;;;;;;;16.73;11.43;;;;;;;;;;5092708;28;20428;-67
2021/12/17 17:02:48;;;;;;;19.20;11.87;;;;;;;;;;5090925;28;21035;-67
2021/12/17 17:05:15;;;;;;;18.37;11.50;;;;;;;;;;5092577;28;20397;-68
2021/12/17 17:07:41;;;;;;;18.00;11.30;;;;;;;;;;5093333;28;20408;-67
2021/12/17 17:10:09;;;;;;;18.13;11.70;;;;;;;;;;5093174;28;20429;-68
2021/12/17 17:12:35;;;;;;;16.87;11.00;;;;;;;;;;5093185;28;20413;-67
2021/12/17 17:15:01;;;;;;;17.57;11.67;;;;;;;;;;5093358;28;20909;-67
2021/12/17 17:17:27;;;;;;;17.97;11.97;;;;;;;;;;5093225;28;20884;-67
2021/12/17 17:19:53;;;;;;;19.67;10.83;;;;;;;;;;5092270;28;20438;-67
2021/12/17 17:22:19;;;;;;;17.20;10.93;;;;;;;;;;5092900;28;20468;-67
2021/12/17 17:24:45;;;;;;;18.90;12.00;;;;;;;;;;5091846;28;20457;-66
2021/12/17 17:27:12;;;;;;;18.70;11.83;;;;;;;;;;5093160;28;20903;-67
2021/12/17 17:29:38;;;;;;;18.20;11.47;;;;;;;;;;5093043;28;20404;-71
2021/12/17 17:32:05;;;;;;;19.93;12.43;;;;;;;;;;5091611;28;20417;-69
2021/12/17 17:34:31;;;;;;;18.97;11.63;;;;;;;;;;5092931;28;20408;-77
2021/12/17 17:36:57;;;;;;;19.83;10.33;;;;;;;;;;5092878;28;20459;-79
2021/12/17 17:39:23;;;;;;;16.90;11.50;;;;;;;;;;5091660;28;20433;-80
2021/12/17 17:41:49;;;;;;;21.67;11.77;;;;;;;;;;5095268;28;20448;-72
2021/12/17 17:44:15;;;;;;;19.30;13.17;;;;;;;;;;5096901;28;20480;-72
2021/12/17 17:46:42;;;;;;;18.47;11.70;;;;;;;;;;5096756;28;20431;-72